KCOD/COD METAR and TAF weather

Enter ICAO airport designator
Station Type Date Time Source
KCOD METAR 2022/06/27 16:56 UTC NOAA

KCOD 271656Z AUTO 02007KT 10SM CLR 24/08 A3030 RMK AO2 SLP217 T02390078


Station Type Date Time Source
KCOD Decoded METAR 2022/06/27 16:56 UTC NOAA

Cody, WY, United States (KCOD) 44-31N 109-01W 1553M
Jun 27, 2022 - 12:56 PM EDT / 2022.06.27 1656 UTC
Wind: from the NNE (020 degrees) at 8 MPH (7 KT):0
Visibility: 10 mile(s):0
Sky conditions: clear
Temperature: 75.0 F (23.9 C)
Dew Point: 46.0 F (7.8 C)
Relative Humidity: 35%
Pressure (altimeter): 30.3 in. Hg (1026 hPa)
ob: KCOD 271656Z AUTO 02007KT 10SM CLR 24/08 A3030 RMK AO2 SLP217 T02390078
cycle: 17

Station Type Date Time Source
KCOD TAF 2022/06/27 12:24 UTC NOAA

TAF KCOD 271121Z 2712/2812 VRB05KT P6SM SKC
FM271800 04008KT P6SM SCT110
FM280500 VRB05KT P6SM FEW120

Example: see airport list